Cottam, Canada
Current Conditions -  °F | °C
As of 3:00 AM on Monday 24 Nov 2014 (Local Time) from CYQG Reporting Station
Light Rain Light Rain  
Wind Chill: 54°   Ceiling: 1100
Heat Index: 54°   Visibility: 12mi
Dew Point: 52°   Wind: 17mph
Humidity: 94%   Direction: 200°SSW
Pressure: 29.09"   Gusts: 25mph
Location:  42.13°N, 82.75°W
Report Text: CYQG 240800Z 20015G22KT 12SM -RA BKN011 OVC025 12/11 A2909 RMK SC7SC1 SLP852 DENSITY ALT 1300FT
Loading
Personal Weather Stations






























Interactive Weather Map New forecast layout! Learn more

10-Day Weather Forecast

Advertisements
Track Severe Weather on mobile